Terminal Aerodrome Forecast
Issued by NWS

Current Version | Previous Version | Text Only | Print | Product List | Glossary On
Versions: 1 2 3 4 5 6 7 8 9 10 11 12 13 14 15 16 17 18 19
000
FTAK31 PANC 291126
TAFADQ
TAF
PADQ 291126Z 2912/3012 18006KT P6SM -SHRA BKN035 OVC050
     FM292000 10012KT P6SM -SHRA BKN035 OVC050
     FM300300 08015G25KT P6SM -SHRA BKN025 OVC035
     FM300900 06025G35KT 5SM -RA BR BKN015 OVC025=

USA.gov is the U.S. government's official web portal to all federal, state and local government web resources and services.